createdAt,value
2017-06-14T00:00:22.029Z,1015.48
2017-06-14T00:01:31.324Z,1015.47
2017-06-14T00:02:40.647Z,1015.47
2017-06-14T00:03:50.264Z,1015.45
2017-06-14T00:05:00.190Z,1015.41
2017-06-14T00:06:10.130Z,1015.42
2017-06-14T00:07:20.037Z,1015.43
2017-06-14T00:08:30.139Z,1015.44
2017-06-14T00:09:40.080Z,1015.46
2017-06-14T00:10:50.371Z,1015.44
2017-06-14T00:12:00.609Z,1015.46
2017-06-14T00:13:10.563Z,1015.43
2017-06-14T00:14:20.503Z,1015.45
2017-06-14T00:15:30.442Z,1015.47
2017-06-14T00:16:40.725Z,1015.49
2017-06-14T00:17:50.664Z,1015.46
2017-06-14T00:19:00.285Z,1015.43
2017-06-14T00:20:09.915Z,1015.48
2017-06-14T00:21:19.531Z,1015.49
2017-06-14T00:22:29.154Z,1015.47
2017-06-14T00:23:39.082Z,1015.46
2017-06-14T00:24:48.405Z,1015.47
2017-06-14T00:25:58.180Z,1015.44
2017-06-14T00:27:08.103Z,1015.39
2017-06-14T00:28:18.362Z,1015.35
2017-06-14T00:29:28.301Z,1015.37
2017-06-14T00:30:37.635Z,1015.33
2017-06-14T00:31:47.724Z,1015.34
2017-06-14T00:32:57.653Z,1015.34
2017-06-14T00:34:07.873Z,1015.36
2017-06-14T00:35:17.173Z,1015.37
2017-06-14T00:36:27.098Z,1015.35
2017-06-14T00:37:36.503Z,1015.35
2017-06-14T00:38:45.493Z,1015.33
2017-06-14T00:39:55.725Z,1015.35
2017-06-14T00:41:05.648Z,1015.35
2017-06-14T00:42:15.258Z,1015.36
2017-06-14T00:43:25.326Z,1015.33
2017-06-14T00:44:35.245Z,1015.35
2017-06-14T00:45:45.145Z,1015.34
2017-06-14T00:46:55.086Z,1015.34
2017-06-14T00:48:05.016Z,1015.31
2017-06-14T00:49:14.947Z,1015.35
2017-06-14T00:50:25.168Z,1015.3
2017-06-14T00:51:35.107Z,1015.28
2017-06-14T00:52:45.023Z,1015.25
2017-06-14T00:53:54.622Z,1015.29
2017-06-14T00:55:04.338Z,1015.31
2017-06-14T00:56:13.970Z,1015.27
2017-06-14T00:57:23.903Z,1015.29
2017-06-14T00:58:33.512Z,1015.29
2017-06-14T00:59:43.757Z,1015.31
2017-06-14T01:00:53.225Z,1015.27
2017-06-14T01:02:03.462Z,1015.31
2017-06-14T01:03:13.391Z,1015.27
2017-06-14T01:04:23.630Z,1015.28
2017-06-14T01:05:33.871Z,1015.28
2017-06-14T01:06:43.949Z,1015.28
2017-06-14T01:07:53.871Z,1015.3
2017-06-14T01:09:02.852Z,1015.29
2017-06-14T01:10:12.170Z,1015.31
2017-06-14T01:11:21.825Z,1015.27
2017-06-14T01:12:31.446Z,1015.3
2017-06-14T01:13:41.684Z,1015.28
2017-06-14T01:14:51.007Z,1015.3
2017-06-14T01:16:00.613Z,1015.31
2017-06-14T01:17:10.533Z,1015.28
2017-06-14T01:18:20.765Z,1015.3
2017-06-14T01:19:30.701Z,1015.35
2017-06-14T01:20:40.978Z,1015.35
2017-06-14T01:21:51.238Z,1015.32
2017-06-14T01:23:01.179Z,1015.37
2017-06-14T01:24:11.457Z,1015.35
2017-06-14T01:25:21.713Z,1015.38
2017-06-14T01:26:31.941Z,1015.37
2017-06-14T01:27:41.556Z,1015.4
2017-06-14T01:28:51.507Z,1015.41
2017-06-14T01:30:02.097Z,1015.41
2017-06-14T01:31:12.010Z,1015.41
2017-06-14T01:32:21.610Z,1015.39
2017-06-14T01:33:31.562Z,1015.4
2017-06-14T01:34:40.879Z,1015.39
2017-06-14T01:35:50.977Z,1015.33
2017-06-14T01:37:00.933Z,1015.33
2017-06-14T01:38:10.537Z,1015.29
2017-06-14T01:39:19.868Z,1015.3
2017-06-14T01:40:29.514Z,1015.23
2017-06-14T01:41:39.570Z,1015.23
2017-06-14T01:42:49.496Z,1015.18
2017-06-14T01:43:58.833Z,1015.15
2017-06-14T01:45:09.064Z,1015.13
2017-06-14T01:46:18.964Z,1015.06
2017-06-14T01:47:28.881Z,1015.1
2017-06-14T01:48:38.808Z,1015.12
2017-06-14T01:49:48.720Z,1015.06
2017-06-14T01:50:58.963Z,1015.07
2017-06-14T01:52:08.900Z,1015.1
2017-06-14T01:53:18.890Z,1015.06
2017-06-14T01:54:28.810Z,1015.1
2017-06-14T01:55:38.736Z,1015.09
2017-06-14T01:56:48.381Z,1015.13
2017-06-14T01:57:58.606Z,1015.12
2017-06-14T01:59:08.722Z,1015.09
2017-06-14T02:00:18.349Z,1015.05
2017-06-14T02:01:28.019Z,1015.03
2017-06-14T02:02:38.013Z,1015.03
2017-06-14T02:03:47.672Z,1015
2017-06-14T02:04:57.969Z,1014.96
2017-06-14T02:06:08.209Z,1015.01
2017-06-14T02:07:18.456Z,1014.97
2017-06-14T02:08:28.067Z,1014.96
2017-06-14T02:09:38.308Z,1014.95
2017-06-14T02:10:48.700Z,1014.95
2017-06-14T02:11:58.954Z,1014.9
2017-06-14T02:13:08.893Z,1014.91
2017-06-14T02:14:18.844Z,1014.97
2017-06-14T02:15:28.461Z,1014.97
2017-06-14T02:16:38.400Z,1014.95
2017-06-14T02:17:48.330Z,1015
2017-06-14T02:18:58.580Z,1014.96
2017-06-14T02:20:08.176Z,1014.96
2017-06-14T02:21:17.865Z,1015.02
2017-06-14T02:22:28.091Z,1014.99
2017-06-14T02:23:37.996Z,1015.07
2017-06-14T02:24:48.302Z,1015.06
2017-06-14T02:25:57.303Z,1015.05
2017-06-14T02:27:07.378Z,1015.05
2017-06-14T02:28:16.765Z,1015.01
2017-06-14T02:29:26.088Z,1015.05
2017-06-14T02:30:36.330Z,1015.04
2017-06-14T02:31:46.266Z,1015.07
2017-06-14T02:32:55.882Z,1015.09
2017-06-14T02:34:06.122Z,1015.06
2017-06-14T02:35:16.057Z,1015.06
2017-06-14T02:36:26.272Z,1015.08
2017-06-14T02:37:35.873Z,1015.09
2017-06-14T02:38:46.266Z,1015.07
2017-06-14T02:39:55.866Z,1015.13
2017-06-14T02:41:06.089Z,1015.09
2017-06-14T02:42:15.992Z,1015.16
2017-06-14T02:43:25.926Z,1015.19
2017-06-14T02:44:35.947Z,1015.21
2017-06-14T02:45:45.850Z,1015.21
2017-06-14T02:46:55.773Z,1015.24
2017-06-14T02:48:05.690Z,1015.21
2017-06-14T02:49:15.905Z,1015.22
2017-06-14T02:50:26.491Z,1015.21
2017-06-14T02:51:36.400Z,1015.32
2017-06-14T02:52:46.317Z,1015.27
2017-06-14T02:53:55.914Z,1015.28
2017-06-14T02:55:06.182Z,1015.27
2017-06-14T02:56:16.263Z,1015.29
2017-06-14T02:57:26.191Z,1015.3
2017-06-14T02:58:35.829Z,1015.32
2017-06-14T02:59:45.456Z,1015.32
2017-06-14T03:00:55.067Z,1015.34
2017-06-14T03:02:04.852Z,1015.35
2017-06-14T03:03:15.090Z,1015.4
2017-06-14T03:04:25.021Z,1015.42
2017-06-14T03:05:34.625Z,1015.43
2017-06-14T03:06:44.904Z,1015.5
2017-06-14T03:07:54.368Z,1015.48
2017-06-14T03:09:04.277Z,1015.5
2017-06-14T03:10:14.213Z,1015.49
2017-06-14T03:11:24.440Z,1015.5
2017-06-14T03:12:34.681Z,1015.5
2017-06-14T03:13:44.446Z,1015.54
2017-06-14T03:14:54.364Z,1015.58
2017-06-14T03:16:03.354Z,1015.62
2017-06-14T03:17:13.262Z,1015.6
2017-06-14T03:18:23.173Z,1015.65
2017-06-14T03:19:32.894Z,1015.61
2017-06-14T03:20:42.820Z,1015.61
2017-06-14T03:21:52.457Z,1015.63
2017-06-14T03:23:02.389Z,1015.61
2017-06-14T03:24:12.314Z,1015.64
2017-06-14T03:25:22.082Z,1015.69
2017-06-14T03:26:32.320Z,1015.69
2017-06-14T03:27:41.933Z,1015.72
2017-06-14T03:28:51.879Z,1015.69
2017-06-14T03:30:02.140Z,1015.73
2017-06-14T03:31:12.067Z,1015.72
2017-06-14T03:32:21.696Z,1015.76
2017-06-14T03:33:31.326Z,1015.72
2017-06-14T03:34:41.268Z,1015.76
2017-06-14T03:35:51.207Z,1015.76
2017-06-14T03:37:01.302Z,1015.76
2017-06-14T03:38:11.254Z,1015.75
2017-06-14T03:39:21.183Z,1015.75
2017-06-14T03:40:30.814Z,1015.77
2017-06-14T03:41:41.043Z,1015.77
2017-06-14T03:42:50.983Z,1015.74
2017-06-14T03:44:01.224Z,1015.74
2017-06-14T03:45:11.168Z,1015.77
2017-06-14T03:46:20.807Z,1015.74
2017-06-14T03:47:31.047Z,1015.75
2017-06-14T03:48:41.260Z,1015.72
2017-06-14T03:49:50.871Z,1015.73
2017-06-14T03:51:00.495Z,1015.73
2017-06-14T03:52:10.432Z,1015.71
2017-06-14T03:53:20.365Z,1015.7
2017-06-14T03:54:30.625Z,1015.7
2017-06-14T03:55:40.867Z,1015.69
2017-06-14T03:56:50.572Z,1015.7
2017-06-14T03:57:59.886Z,1015.74
2017-06-14T03:59:09.816Z,1015.74
2017-06-14T04:00:19.443Z,1015.78
2017-06-14T04:01:28.154Z,1015.76
2017-06-14T04:02:38.082Z,1015.79
2017-06-14T04:03:48.316Z,1015.8
2017-06-14T04:04:57.938Z,1015.8
2017-06-14T04:06:07.261Z,1015.81
2017-06-14T04:07:17.194Z,1015.8
2017-06-14T04:08:27.432Z,1015.81
2017-06-14T04:09:37.682Z,1015.86
2017-06-14T04:10:47.625Z,1015.84
2017-06-14T04:11:57.286Z,1015.85
2017-06-14T04:13:07.217Z,1015.82
2017-06-14T04:14:16.824Z,1015.81
2017-06-14T04:15:26.450Z,1015.76
2017-06-14T04:16:36.075Z,1015.75
2017-06-14T04:17:45.791Z,1015.74
2017-06-14T04:18:56.018Z,1015.75
2017-06-14T04:20:05.943Z,1015.78
2017-06-14T04:21:15.556Z,1015.82
2017-06-14T04:22:24.874Z,1015.84
2017-06-14T04:23:35.265Z,1015.85
2017-06-14T04:24:45.509Z,1015.84
2017-06-14T04:25:55.439Z,1015.77
2017-06-14T04:27:05.051Z,1015.77
2017-06-14T04:28:15.310Z,1015.75
2017-06-14T04:29:25.102Z,1015.79
2017-06-14T04:30:35.014Z,1015.8
2017-06-14T04:31:44.927Z,1015.81
2017-06-14T04:32:55.152Z,1015.83
2017-06-14T04:34:04.782Z,1015.81
2017-06-14T04:35:15.161Z,1015.83
2017-06-14T04:36:24.150Z,1015.81
2017-06-14T04:37:34.069Z,1015.78
2017-06-14T04:38:43.981Z,1015.78
2017-06-14T04:39:53.907Z,1015.8
2017-06-14T04:41:04.148Z,1015.78
2017-06-14T04:42:13.463Z,1015.81
2017-06-14T04:43:23.706Z,1015.77
2017-06-14T04:44:33.642Z,1015.81
2017-06-14T04:45:43.581Z,1015.87
2017-06-14T04:46:53.514Z,1015.85
2017-06-14T04:48:03.447Z,1015.91
2017-06-14T04:49:13.095Z,1015.9
2017-06-14T04:50:23.011Z,1015.89
2017-06-14T04:51:33.245Z,1015.9
2017-06-14T04:52:43.270Z,1015.83
2017-06-14T04:53:52.887Z,1015.85
2017-06-14T04:55:02.512Z,1015.87
2017-06-14T04:56:12.155Z,1015.88
2017-06-14T04:57:22.409Z,1015.88
2017-06-14T04:58:32.410Z,1015.88
2017-06-14T04:59:41.736Z,1015.87
2017-06-14T05:00:51.978Z,1015.89
2017-06-14T05:02:01.911Z,1015.86
2017-06-14T05:03:16.417Z,1015.86
2017-06-14T05:04:26.489Z,1015.87
2017-06-14T05:05:36.430Z,1015.87
2017-06-14T05:06:46.066Z,1015.88
2017-06-14T05:07:56.312Z,1015.93
2017-06-14T05:09:06.245Z,1015.89
2017-06-14T05:10:16.008Z,1015.91
2017-06-14T05:11:25.930Z,1015.9
2017-06-14T05:12:35.869Z,1015.91
2017-06-14T05:13:45.810Z,1015.89
2017-06-14T05:14:55.803Z,1015.82
2017-06-14T05:16:05.777Z,1015.85
2017-06-14T05:17:15.736Z,1015.8
2017-06-14T05:18:25.391Z,1015.83
2017-06-14T05:19:35.018Z,1015.8
2017-06-14T05:20:44.648Z,1015.77
2017-06-14T05:21:54.398Z,1015.84
2017-06-14T05:23:04.352Z,1015.83
2017-06-14T05:24:14.012Z,1015.84
2017-06-14T05:25:23.962Z,1015.78
2017-06-14T05:26:33.595Z,1015.79
2017-06-14T05:27:43.970Z,1015.75
2017-06-14T05:28:53.959Z,1015.76
2017-06-14T05:30:03.594Z,1015.77
2017-06-14T05:31:13.549Z,1015.81
2017-06-14T05:32:23.808Z,1015.79
2017-06-14T05:33:33.871Z,1015.81
2017-06-14T05:34:44.141Z,1015.8
2017-06-14T05:35:54.100Z,1015.79
2017-06-14T05:37:04.028Z,1015.8
2017-06-14T05:38:13.357Z,1015.83
2017-06-14T05:39:23.597Z,1015.8
2017-06-14T05:40:33.531Z,1015.85
2017-06-14T05:41:42.863Z,1015.86
2017-06-14T05:42:53.116Z,1015.87
2017-06-14T05:44:03.337Z,1015.89
2017-06-14T05:45:13.275Z,1015.88
2017-06-14T05:46:23.509Z,1015.83
2017-06-14T05:47:33.123Z,1015.82
2017-06-14T05:48:43.074Z,1015.81
2017-06-14T05:49:53.030Z,1015.81
2017-06-14T05:51:03.108Z,1015.82
2017-06-14T05:52:12.755Z,1015.85
2017-06-14T05:53:22.971Z,1015.88
2017-06-14T05:54:32.285Z,1015.85
2017-06-14T05:55:42.539Z,1015.8
2017-06-14T05:56:52.647Z,1015.76
2017-06-14T05:58:02.596Z,1015.8
2017-06-14T05:59:12.868Z,1015.77
2017-06-14T06:00:23.113Z,1015.75
2017-06-14T06:01:33.946Z,1015.8
2017-06-14T06:02:44.403Z,1015.76
2017-06-14T06:03:54.661Z,1015.72
2017-06-14T06:05:05.676Z,1015.71
2017-06-14T06:06:16.507Z,1015.7
2017-06-14T06:07:26.462Z,1015.69
2017-06-14T06:08:36.385Z,1015.66
2017-06-14T06:09:45.401Z,1015.68
2017-06-14T06:10:55.634Z,1015.67
2017-06-14T06:12:05.564Z,1015.65
2017-06-14T06:13:14.868Z,1015.64
2017-06-14T06:14:24.887Z,1015.61
2017-06-14T06:15:34.495Z,1015.68
2017-06-14T06:16:44.435Z,1015.61
2017-06-14T06:17:54.666Z,1015.63
2017-06-14T06:19:05.382Z,1015.61
2017-06-14T06:20:16.212Z,1015.6
2017-06-14T06:21:26.717Z,1015.58
2017-06-14T06:22:36.948Z,1015.59
2017-06-14T06:23:46.881Z,1015.59
2017-06-14T06:24:57.157Z,1015.56
2017-06-14T06:26:07.276Z,1015.54
2017-06-14T06:27:17.791Z,1015.55
2017-06-14T06:28:28.199Z,1015.6
2017-06-14T06:29:38.210Z,1015.55
2017-06-14T06:30:48.740Z,1015.54
2017-06-14T06:31:58.361Z,1015.57
2017-06-14T06:33:07.976Z,1015.56
2017-06-14T06:34:17.933Z,1015.56
2017-06-14T06:35:27.853Z,1015.59
2017-06-14T06:36:37.785Z,1015.61
2017-06-14T06:37:48.113Z,1015.58
2017-06-14T06:38:58.026Z,1015.52
2017-06-14T06:40:07.963Z,1015.55
2017-06-14T06:41:17.884Z,1015.55
2017-06-14T06:42:27.821Z,1015.56
2017-06-14T06:43:38.071Z,1015.57
2017-06-14T06:44:47.703Z,1015.61
2017-06-14T06:45:57.928Z,1015.58
2017-06-14T06:47:07.853Z,1015.58
2017-06-14T06:48:18.076Z,1015.54
2017-06-14T06:49:28.450Z,1015.56
2017-06-14T06:50:38.063Z,1015.51
2017-06-14T06:51:47.976Z,1015.53
2017-06-14T06:52:58.199Z,1015.52
2017-06-14T06:54:08.126Z,1015.49
2017-06-14T06:55:18.372Z,1015.49
2017-06-14T06:56:28.300Z,1015.47
2017-06-14T06:57:37.616Z,1015.53
2017-06-14T06:58:47.865Z,1015.45
2017-06-14T06:59:58.106Z,1015.48
2017-06-14T07:01:07.816Z,1015.51
2017-06-14T07:02:17.737Z,1015.48
2017-06-14T07:03:27.675Z,1015.48
2017-06-14T07:04:37.612Z,1015.47
2017-06-14T07:05:47.521Z,1015.52
2017-06-14T07:06:56.988Z,1015.56
2017-06-14T07:08:06.904Z,1015.54
2017-06-14T07:09:16.521Z,1015.59
2017-06-14T07:10:26.132Z,1015.66
2017-06-14T07:11:36.357Z,1015.67
2017-06-14T07:12:46.341Z,1015.64
2017-06-14T07:13:55.625Z,1015.63
2017-06-14T07:15:05.905Z,1015.61
2017-06-14T07:16:15.505Z,1015.62
2017-06-14T07:17:25.115Z,1015.62
2017-06-14T07:18:35.387Z,1015.65
2017-06-14T07:19:45.608Z,1015.63
2017-06-14T07:20:55.529Z,1015.6
2017-06-14T07:22:05.133Z,1015.64
2017-06-14T07:23:15.085Z,1015.62
2017-06-14T07:24:25.163Z,1015.59
2017-06-14T07:25:35.096Z,1015.69
2017-06-14T07:26:45.015Z,1015.61
2017-06-14T07:27:54.930Z,1015.65
2017-06-14T07:29:05.149Z,1015.6
2017-06-14T07:30:14.908Z,1015.61
2017-06-14T07:31:24.810Z,1015.63
2017-06-14T07:32:33.499Z,1015.64
2017-06-14T07:33:43.101Z,1015.62
2017-06-14T07:34:52.704Z,1015.62
2017-06-14T07:36:02.631Z,1015.64
2017-06-14T07:37:12.245Z,1015.61
2017-06-14T07:38:22.471Z,1015.63
2017-06-14T07:39:32.695Z,1015.66
2017-06-14T07:40:42.930Z,1015.71
2017-06-14T07:41:53.323Z,1015.72
2017-06-14T07:43:03.248Z,1015.7
2017-06-14T07:44:13.164Z,1015.74
2017-06-14T07:45:22.763Z,1015.76
2017-06-14T07:46:32.365Z,1015.78
2017-06-14T07:47:41.797Z,1015.74
2017-06-14T07:48:51.741Z,1015.71
2017-06-14T07:50:01.659Z,1015.72
2017-06-14T07:51:11.573Z,1015.69
2017-06-14T07:52:21.174Z,1015.73
2017-06-14T07:53:30.927Z,1015.73
2017-06-14T07:54:40.852Z,1015.74
2017-06-14T07:55:51.070Z,1015.72
2017-06-14T07:57:01.312Z,1015.66
2017-06-14T07:58:11.545Z,1015.69
2017-06-14T07:59:21.173Z,1015.66
2017-06-14T08:00:31.407Z,1015.65
2017-06-14T08:01:41.649Z,1015.71
2017-06-14T08:02:51.288Z,1015.7
2017-06-14T08:04:00.951Z,1015.73
2017-06-14T08:05:10.416Z,1015.69
2017-06-14T08:06:20.644Z,1015.66
2017-06-14T08:07:30.565Z,1015.64
2017-06-14T08:08:40.475Z,1015.62
2017-06-14T08:09:50.753Z,1015.64
2017-06-14T08:11:01.119Z,1015.59
2017-06-14T08:12:11.335Z,1015.57
2017-06-14T08:13:20.931Z,1015.44
2017-06-14T08:15:02.958Z,1015.42
2017-06-14T08:16:13.023Z,1015.42
2017-06-14T08:17:22.338Z,1015.42
2017-06-14T08:18:31.949Z,1015.46
2017-06-14T08:19:41.247Z,1015.42
2017-06-14T08:20:51.461Z,1015.4
2017-06-14T08:22:01.522Z,1015.38
2017-06-14T08:23:11.433Z,1015.38
2017-06-14T08:24:21.033Z,1015.36
2017-06-14T08:25:30.950Z,1015.36
2017-06-14T08:26:41.565Z,1015.31
2017-06-14T08:27:52.090Z,1015.35
2017-06-14T08:29:01.688Z,1015.36
2017-06-14T08:30:12.001Z,1015.39
2017-06-14T08:31:21.916Z,1015.4
2017-06-14T08:32:32.154Z,1015.4
2017-06-14T08:33:42.186Z,1015.43
2017-06-14T08:34:51.173Z,1015.41
2017-06-14T08:36:01.383Z,1015.44
2017-06-14T08:37:11.600Z,1015.43
2017-06-14T08:38:21.515Z,1015.44
2017-06-14T08:39:31.173Z,1015.42
2017-06-14T08:40:41.085Z,1015.42
2017-06-14T08:41:50.690Z,1015.39
2017-06-14T08:43:00.611Z,1015.38
2017-06-14T08:44:09.606Z,1015.39
2017-06-14T08:45:19.675Z,1015.36
2017-06-14T08:46:28.987Z,1015.38
2017-06-14T08:47:38.595Z,1015.39
2017-06-14T08:48:48.193Z,1015.34
2017-06-14T08:49:58.420Z,1015.33
2017-06-14T08:51:08.638Z,1015.38
2017-06-14T08:52:18.245Z,1015.33
2017-06-14T08:53:28.166Z,1015.31
2017-06-14T08:54:37.767Z,1015.31
2017-06-14T08:55:47.686Z,1015.26
2017-06-14T08:56:57.681Z,1015.27
2017-06-14T08:58:07.292Z,1015.24
2017-06-14T08:59:17.878Z,1015.27
2017-06-14T09:00:27.481Z,1015.27
2017-06-14T09:01:37.087Z,1015.27
2017-06-14T09:02:46.860Z,1015.25
2017-06-14T09:03:56.785Z,1015.18
2017-06-14T09:05:06.998Z,1015.2
2017-06-14T09:06:16.293Z,1015.21
2017-06-14T09:07:25.601Z,1015.23
2017-06-14T09:08:35.929Z,1015.17
2017-06-14T09:09:45.548Z,1015.15
2017-06-14T09:10:54.888Z,1015.18
2017-06-14T09:12:04.507Z,1015.19
2017-06-14T09:13:14.432Z,1015.18
2017-06-14T09:14:24.801Z,1015.18
2017-06-14T09:15:34.714Z,1015.18
2017-06-14T09:16:44.956Z,1015.14
2017-06-14T09:17:55.464Z,1015.14
2017-06-14T09:19:05.805Z,1015.11
2017-06-14T09:20:16.853Z,1015.12
2017-06-14T09:21:26.768Z,1015.07
2017-06-14T09:22:37.004Z,1015.08
2017-06-14T09:23:46.923Z,1015.07
2017-06-14T09:24:56.233Z,1015.07
2017-06-14T09:26:06.605Z,1015.04
2017-06-14T09:27:16.827Z,1015.03
2017-06-14T09:28:27.045Z,1015.01
2017-06-14T09:29:36.952Z,1015.01
2017-06-14T09:30:46.593Z,1015
2017-06-14T09:31:56.928Z,1015
2017-06-14T09:33:06.551Z,1014.94
2017-06-14T09:34:16.473Z,1014.93
2017-06-14T09:35:26.097Z,1015
2017-06-14T09:36:36.304Z,1015.04
2017-06-14T09:37:46.682Z,1015.05
2017-06-14T09:38:55.996Z,1015.04
2017-06-14T09:40:05.918Z,1015
2017-06-14T09:41:15.839Z,1014.99
2017-06-14T09:42:25.469Z,1014.97
2017-06-14T09:43:35.546Z,1014.93
2017-06-14T09:44:45.465Z,1014.93
2017-06-14T09:45:55.386Z,1014.91
2017-06-14T09:47:05.309Z,1014.89
2017-06-14T09:48:15.533Z,1014.84
2017-06-14T09:49:25.607Z,1014.85
2017-06-14T09:50:35.216Z,1014.82
2017-06-14T09:51:44.828Z,1014.86
2017-06-14T09:52:54.752Z,1014.94
2017-06-14T09:54:04.401Z,1014.9
2017-06-14T09:55:14.457Z,1014.88
2017-06-14T09:56:24.681Z,1014.89
2017-06-14T09:57:34.610Z,1014.87
2017-06-14T09:58:44.846Z,1014.87
2017-06-14T09:59:54.472Z,1014.84
2017-06-14T10:01:03.823Z,1014.79
2017-06-14T10:02:13.420Z,1014.86
2017-06-14T10:03:23.637Z,1014.83
2017-06-14T10:04:33.555Z,1014.85
2017-06-14T10:05:43.770Z,1014.82
2017-06-14T10:06:53.377Z,1014.83
2017-06-14T10:08:02.987Z,1014.89
2017-06-14T10:09:12.290Z,1014.85
2017-06-14T10:10:22.213Z,1014.81
2017-06-14T10:11:32.125Z,1014.77
2017-06-14T10:12:42.692Z,1014.74
2017-06-14T10:13:52.911Z,1014.74
2017-06-14T10:15:02.527Z,1014.72
2017-06-14T10:16:12.844Z,1014.66
2017-06-14T10:17:22.757Z,1014.7
2017-06-14T10:18:32.704Z,1014.71
2017-06-14T10:19:42.618Z,1014.74
2017-06-14T10:20:51.914Z,1014.73
2017-06-14T10:22:01.832Z,1014.71
2017-06-14T10:23:11.757Z,1014.75
2017-06-14T10:24:21.375Z,1014.7
2017-06-14T10:25:31.296Z,1014.7
2017-06-14T10:26:41.218Z,1014.72
2017-06-14T10:27:50.823Z,1014.7
2017-06-14T10:29:01.056Z,1014.71
2017-06-14T10:30:10.769Z,1014.7
2017-06-14T10:31:20.385Z,1014.67
2017-06-14T10:32:30.012Z,1014.66
2017-06-14T10:33:40.223Z,1014.66
2017-06-14T10:34:50.135Z,1014.72
2017-06-14T10:36:00.372Z,1014.69
2017-06-14T10:37:10.288Z,1014.66
2017-06-14T10:38:20.225Z,1014.67
2017-06-14T10:39:30.446Z,1014.67
2017-06-14T10:40:40.053Z,1014.62
2017-06-14T10:41:50.018Z,1014.61
2017-06-14T10:42:59.937Z,1014.6
2017-06-14T10:44:09.852Z,1014.59
2017-06-14T10:45:19.490Z,1014.59
2017-06-14T10:46:29.401Z,1014.57
2017-06-14T10:47:39.771Z,1014.56
2017-06-14T10:48:49.383Z,1014.5
2017-06-14T10:49:59.327Z,1014.5
2017-06-14T10:51:08.931Z,1014.5
2017-06-14T10:52:19.188Z,1014.46
2017-06-14T10:53:29.099Z,1014.49
2017-06-14T10:54:39.020Z,1014.52
2017-06-14T10:55:49.268Z,1014.51
2017-06-14T10:56:58.574Z,1014.52
2017-06-14T10:58:08.180Z,1014.47
2017-06-14T10:59:18.112Z,1014.43
2017-06-14T11:00:28.345Z,1014.38
2017-06-14T11:01:38.581Z,1014.37
2017-06-14T11:02:48.806Z,1014.38
2017-06-14T11:03:58.414Z,1014.35
2017-06-14T11:05:08.654Z,1014.38
2017-06-14T11:06:18.581Z,1014.39
2017-06-14T11:07:28.188Z,1014.37
2017-06-14T11:08:38.419Z,1014.36
2017-06-14T11:09:47.721Z,1014.33
2017-06-14T11:10:58.452Z,1014.33
2017-06-14T11:12:08.086Z,1014.32
2017-06-14T11:13:17.709Z,1014.31
2017-06-14T11:14:27.321Z,1014.28
2017-06-14T11:15:37.233Z,1014.27
2017-06-14T11:16:47.506Z,1014.26
2017-06-14T11:17:57.123Z,1014.27
2017-06-14T11:19:07.030Z,1014.27
2017-06-14T11:20:16.977Z,1014.22
2017-06-14T11:21:26.296Z,1014.22
2017-06-14T11:22:36.060Z,1014.18
2017-06-14T11:23:45.670Z,1014.14
2017-06-14T11:24:55.585Z,1014.17
2017-06-14T11:26:04.887Z,1014.11
2017-06-14T11:27:14.493Z,1014.13
2017-06-14T11:28:24.531Z,1014.15
2017-06-14T11:29:34.441Z,1014.2
2017-06-14T11:30:43.744Z,1014.18
2017-06-14T11:31:53.694Z,1014.17
2017-06-14T11:33:03.957Z,1014.15
2017-06-14T11:34:13.653Z,1014.12
2017-06-14T11:35:22.959Z,1014.06
2017-06-14T11:36:33.178Z,1014.04
2017-06-14T11:37:42.803Z,1014.02
2017-06-14T11:38:52.521Z,1014.06
2017-06-14T11:40:03.266Z,1014.05
2017-06-14T11:41:13.894Z,1014
2017-06-14T11:42:23.856Z,1014.05
2017-06-14T11:43:34.419Z,1014.08
2017-06-14T11:44:44.642Z,1014.1
2017-06-14T11:45:54.939Z,1014.12
2017-06-14T11:47:04.857Z,1014.14
2017-06-14T11:48:15.104Z,1014.09
2017-06-14T11:49:25.326Z,1014.07
2017-06-14T11:50:34.985Z,1014.05
2017-06-14T11:51:44.708Z,1014.1
2017-06-14T11:52:54.330Z,1014.01
2017-06-14T11:54:04.545Z,1014
2017-06-14T11:55:14.468Z,1014.04
2017-06-14T11:56:24.077Z,1014.02
2017-06-14T11:57:34.303Z,1013.96
2017-06-14T11:58:43.618Z,1013.96
2017-06-14T11:59:53.528Z,1013.95
2017-06-14T12:01:03.134Z,1013.92
2017-06-14T12:02:13.049Z,1013.91
2017-06-14T12:03:22.696Z,1013.89
2017-06-14T12:04:32.606Z,1013.89
2017-06-14T12:05:42.534Z,1013.89
2017-06-14T12:06:52.460Z,1013.95
2017-06-14T12:08:02.392Z,1013.86
2017-06-14T12:09:11.404Z,1013.83
2017-06-14T12:10:21.036Z,1013.87
2017-06-14T12:11:30.648Z,1013.82
2017-06-14T12:12:40.566Z,1013.84
2017-06-14T12:13:50.197Z,1013.83
2017-06-14T12:15:00.563Z,1013.87
2017-06-14T12:16:09.881Z,1013.86
2017-06-14T12:17:19.802Z,1013.84
2017-06-14T12:18:30.041Z,1013.81
2017-06-14T12:19:40.302Z,1013.76
2017-06-14T12:20:49.768Z,1013.71
2017-06-14T12:21:59.084Z,1013.66
2017-06-14T12:23:09.025Z,1013.69
2017-06-14T12:24:18.968Z,1013.68
2017-06-14T12:25:29.196Z,1013.67
2017-06-14T12:26:39.576Z,1013.7
2017-06-14T12:27:49.788Z,1013.68
2017-06-14T12:29:00.020Z,1013.61
2017-06-14T12:30:09.338Z,1013.62
2017-06-14T12:31:18.956Z,1013.66
2017-06-14T12:32:29.022Z,1013.69
2017-06-14T12:33:38.633Z,1013.68
2017-06-14T12:34:48.233Z,1013.67
2017-06-14T12:35:58.170Z,1013.6
2017-06-14T12:37:08.092Z,1013.57
2017-06-14T12:38:18.161Z,1013.56
2017-06-14T12:39:27.779Z,1013.61
2017-06-14T12:40:37.381Z,1013.61
2017-06-14T12:41:46.981Z,1013.62
2017-06-14T12:42:56.890Z,1013.6
2017-06-14T12:44:07.106Z,1013.58
2017-06-14T12:45:16.399Z,1013.58
2017-06-14T12:46:25.993Z,1013.62
2017-06-14T12:47:35.913Z,1013.6
2017-06-14T12:48:45.833Z,1013.54
2017-06-14T12:49:56.394Z,1013.55
2017-06-14T12:51:06.300Z,1013.55
2017-06-14T12:52:15.904Z,1013.49
2017-06-14T12:53:26.145Z,1013.5
2017-06-14T12:54:35.754Z,1013.51
2017-06-14T12:55:45.512Z,1013.48
2017-06-14T12:56:55.114Z,1013.45
2017-06-14T12:58:04.722Z,1013.48
2017-06-14T12:59:14.030Z,1013.46
2017-06-14T13:00:24.249Z,1013.41
2017-06-14T13:01:33.691Z,1013.41
2017-06-14T13:02:42.980Z,1013.45
2017-06-14T13:03:52.589Z,1013.43
2017-06-14T13:05:02.817Z,1013.52
2017-06-14T13:06:12.734Z,1013.51
2017-06-14T13:07:22.661Z,1013.52
2017-06-14T13:08:32.272Z,1013.46
2017-06-14T13:09:41.871Z,1013.42
2017-06-14T13:10:51.794Z,1013.45
2017-06-14T13:12:01.712Z,1013.43
2017-06-14T13:13:11.998Z,1013.37
2017-06-14T13:14:21.347Z,1013.33
2017-06-14T13:15:31.299Z,1013.31
2017-06-14T13:16:41.231Z,1013.31
2017-06-14T13:17:51.144Z,1013.31
2017-06-14T13:19:00.811Z,1013.28
2017-06-14T13:20:11.041Z,1013.28
2017-06-14T13:21:20.960Z,1013.31
2017-06-14T13:22:30.257Z,1013.3
2017-06-14T13:23:40.474Z,1013.3
2017-06-14T13:24:50.392Z,1013.32
2017-06-14T13:26:00.309Z,1013.32
2017-06-14T13:27:09.922Z,1013.29
2017-06-14T13:28:19.827Z,1013.29
2017-06-14T13:29:29.739Z,1013.29
2017-06-14T13:30:39.489Z,1013.31
2017-06-14T13:31:50.071Z,1013.32
2017-06-14T13:32:59.993Z,1013.31
2017-06-14T13:34:10.218Z,1013.27
2017-06-14T13:35:20.142Z,1013.25
2017-06-14T13:36:29.901Z,1013.19
2017-06-14T13:37:39.804Z,1013.18
2017-06-14T13:38:49.412Z,1013.14
2017-06-14T13:39:59.019Z,1013.15
2017-06-14T13:41:08.629Z,1013.11
2017-06-14T13:42:18.585Z,1013.14
2017-06-14T13:43:28.823Z,1013.13
2017-06-14T13:44:38.427Z,1013.12
2017-06-14T13:45:48.335Z,1013.03
2017-06-14T13:46:57.950Z,1013.04
2017-06-14T13:48:08.339Z,1013.04
2017-06-14T13:49:18.261Z,1013.04
2017-06-14T13:50:28.191Z,1013.07
2017-06-14T13:51:38.105Z,1013.04
2017-06-14T13:52:48.025Z,1013.06
2017-06-14T13:53:58.079Z,1013.07
2017-06-14T13:55:07.368Z,1013.08
2017-06-14T13:56:17.276Z,1013.09
2017-06-14T13:57:27.491Z,1013.01
2017-06-14T13:58:37.101Z,1013.05
2017-06-14T13:59:47.250Z,1013.02
2017-06-14T14:00:57.163Z,1013.01
2017-06-14T14:02:06.764Z,1012.95
2017-06-14T14:03:16.667Z,1012.98
2017-06-14T14:04:26.883Z,1012.95
2017-06-14T14:05:36.636Z,1012.99
2017-06-14T14:06:45.951Z,1012.93
2017-06-14T14:07:55.882Z,1012.9
2017-06-14T14:09:05.481Z,1012.86